This is the latest recevied weather packets stored in our database for station/object DG0PX-12. If no packets are shown the sender has not sent any weather packets the latest 10 day(s).
| Time | Temp. | Humidity | Pressure | Rain* | Wind** | Luminosity | Snow |
|---|---|---|---|---|---|---|---|
| 1777616974 | 8.89° C | 38% | 958.8 hPa | - | - | - | - |
| 1777616074 | 8.33° C | 40% | 958.8 hPa | - | - | - | - |
| 1777615174 | 7.22° C | 41% | 958.8 hPa | - | - | - | - |
| 1777614274 | 5.56° C | 51% | 958.6 hPa | - | - | - | - |
| 1777613373 | 2.78° C | 57% | 958.7 hPa | - | - | - | - |
| 1777612473 | 3.33° C | 57% | 958.7 hPa | - | - | - | - |
| 1777611573 | 2.78° C | 60% | 958.6 hPa | - | - | - | - |
| 1777610673 | 2.78° C | 59% | 958.6 hPa | - | - | - | - |
| 1777609773 | 1.67° C | 60% | 958.6 hPa | - | - | - | - |
| 1777608873 | 2.22° C | 59% | 958.6 hPa | - | - | - | - |
| 1777607973 | 1.67° C | 62% | 958.4 hPa | - | - | - | - |
| 1777607072 | 2.22° C | 61% | 958.3 hPa | - | - | - | - |
| 1777606172 | 1.11° C | 64% | 958.3 hPa | - | - | - | - |
| 1777605272 | 2.22° C | 59% | 958.1 hPa | - | - | - | - |
| 1777604372 | 1.67° C | 65% | 958.1 hPa | - | - | - | - |
| 1777603472 | 2.22° C | 60% | 958 hPa | - | - | - | - |
| 1777602572 | 1.11° C | 63% | 958.1 hPa | - | - | - | - |
| 1777601671 | 1.67° C | 65% | 958 hPa | - | - | - | - |
| 1777600771 | 2.22° C | 62% | 958.2 hPa | - | - | - | - |
| 1777599871 | 2.78° C | 59% | 958.1 hPa | - | - | - | - |
| 1777598971 | 2.78° C | 60% | 958.1 hPa | - | - | - | - |
| 1777598071 | 2.78° C | 60% | 958.1 hPa | - | - | - | - |
| 1777597171 | 2.22° C | 62% | 958.2 hPa | - | - | - | - |
| 1777596270 | 3.89° C | 56% | 958.3 hPa | - | - | - | - |
| 1777595370 | 3.89° C | 57% | 958.2 hPa | - | - | - | - |
* Rain since midnight (hover to see other rain measurements)
** Current wind speed in m/s (hover to see current wind gust speed)